Минеральные Воды, Russia

26 09, 2016 01:26 MSK (GMT +0300)
Mineralnyye Vody | | Change Station

В.н.у.м. 1030 ft 44.23 °N, 43.08 °E | Updated 26 minutes ago

Scattered Clouds
Переменная Облачность
46 °F
Ощущается Как 46 °F
С
2
Ветер переменчевый Ветер от переменчевый

Сегодня
Высокий -- | Низкий -- °F
--% Вероятн. осадков
Вчера
Высокий -- | Низкий -- °F
Precip. -- дюймов
Давление 30.04 дюймов
Видимость 6.2 милиь
Облачность Переменная Облачность 5900 ft
Точка Росы 41 °F
Влажность воздуха 81%
Дождь 0.00 дюймов
Глубина снега Нет в наличии.
5:59 AM 5:57 PM
Убывающий полумесяц, 24% visible
METAR URMM 252200Z VRB01MPS 9999 SCT059 08/05 Q1017 R30/000070 NOSIG RMK QFE734/0979
Давление 30.04 дюймов
Видимость 6.2 милиь
Облачность Переменная Облачность 5900 ft
Точка Росы 41 °F
Влажность воздуха 81%
Дождь 0.00 дюймов
Глубина снега Нет в наличии.
5:59 AM 5:57 PM
Убывающий полумесяц, 24% visible
METAR URMM 252200Z VRB01MPS 9999 SCT059 08/05 Q1017 R30/000070 NOSIG RMK QFE734/0979

10-Day Weather Forecast

×

Almanac

Астрономические явления

Sep. 26, 2016 Восход Закат
Настоящее время
Гражданские сумерки
Навигационные сумерки
Астрономические сумерки
Луна
Длительность светового времени
Продолжительность Дня
Tomorrow will be .
, % of the Moon is Illuminated

Сегодняшние Экстремальные Показания

Country Highs Country Lows

Community

WunderPhotos

Upload Photos

1,941,757 фотографии загружены!

WunderBlog® & News

Nearby

Качество воздуха

  Качество воздуха Индекс AQ Загрязнитель
Not available.

Глубина Снега

Station Depth Высота над уровнем моря

Сейсмическая активность

Город Distance Mag. Time & Date
Minimum magnitude displayed is 2.5.

Температура Прибрежных Вод

Место Температура

Stations

Ближайшие Погодные Станции

Местонахождение Темп. Температура с учетом ветра Точка Росы Влажность воздуха Ветер Precip. В.н.у.м. Последняя сводка Тип